createdAt,value
2022-10-26T00:01:14.904Z,9.32
2022-10-26T00:03:44.702Z,9.93
2022-10-26T00:06:16.473Z,14.63
2022-10-26T00:08:43.589Z,16.38
2022-10-26T00:11:12.299Z,9.85
2022-10-26T00:13:40.795Z,11.02
2022-10-26T00:16:18.780Z,9.52
2022-10-26T00:18:46.326Z,12.45
2022-10-26T00:21:13.597Z,9.57
2022-10-26T00:23:42.790Z,10.93
2022-10-26T00:26:10.321Z,9.00
2022-10-26T00:28:37.361Z,8.88
2022-10-26T00:31:08.297Z,11.30
2022-10-26T00:33:36.041Z,11.55
2022-10-26T00:36:03.116Z,9.63
2022-10-26T00:38:31.103Z,7.28
2022-10-26T00:43:29.702Z,7.25
2022-10-26T00:45:59.654Z,8.77
2022-10-26T00:48:38.640Z,8.23
2022-10-26T00:51:14.785Z,13.00
2022-10-26T00:53:42.747Z,9.27
2022-10-26T00:56:09.892Z,8.30
2022-10-26T00:58:37.856Z,5.70
2022-10-26T01:01:04.753Z,10.82
2022-10-26T01:03:33.166Z,12.50
2022-10-26T01:06:00.144Z,11.43
2022-10-26T01:08:28.899Z,9.98
2022-10-26T01:10:58.615Z,12.48
2022-10-26T01:13:30.258Z,11.15
2022-10-26T01:16:09.135Z,7.07
2022-10-26T01:18:54.272Z,7.70
2022-10-26T01:21:40.891Z,11.30
2022-10-26T01:24:28.435Z,12.07
2022-10-26T01:27:32.039Z,11.73
2022-10-26T01:30:40.926Z,11.90
2022-10-26T01:33:35.029Z,10.85
2022-10-26T01:36:33.829Z,8.35
2022-10-26T01:39:29.891Z,11.50
2022-10-26T01:42:01.481Z,11.57
2022-10-26T01:44:39.516Z,15.80
2022-10-26T01:47:13.437Z,9.57
2022-10-26T01:49:46.988Z,14.05
2022-10-26T01:52:14.134Z,6.43
2022-10-26T01:54:40.908Z,8.50
2022-10-26T01:57:11.932Z,12.73
2022-10-26T02:00:02.250Z,7.95
2022-10-26T02:03:09.212Z,8.65
2022-10-26T02:05:46.504Z,10.43
2022-10-26T02:09:06.687Z,8.75
2022-10-26T02:11:47.790Z,14.75
2022-10-26T02:14:40.599Z,11.63
2022-10-26T02:17:29.064Z,9.82
2022-10-26T02:20:07.922Z,8.27
2022-10-26T02:22:45.402Z,7.10
2022-10-26T02:25:30.655Z,8.18
2022-10-26T02:28:04.676Z,6.07
2022-10-26T02:30:33.561Z,9.63
2022-10-26T02:33:00.752Z,9.98
2022-10-26T02:35:36.660Z,10.98
2022-10-26T02:38:10.989Z,12.80
2022-10-26T02:40:39.165Z,7.82
2022-10-26T02:43:13.407Z,8.30
2022-10-26T02:45:49.471Z,10.98
2022-10-26T02:48:16.858Z,10.10
2022-10-26T02:51:05.243Z,9.77
2022-10-26T02:53:47.142Z,9.88
2022-10-26T02:56:34.100Z,13.70
2022-10-26T02:59:06.154Z,8.77
2022-10-26T03:01:34.395Z,9.93
2022-10-26T03:04:01.642Z,7.75
2022-10-26T03:06:28.640Z,7.22
2022-10-26T03:08:55.508Z,13.73
2022-10-26T03:11:22.270Z,11.23
2022-10-26T03:13:49.080Z,12.50
2022-10-26T03:16:15.874Z,10.20
2022-10-26T03:18:42.660Z,12.88
2022-10-26T03:21:09.519Z,10.90
2022-10-26T03:23:36.309Z,10.80
2022-10-26T03:26:03.223Z,12.20
2022-10-26T03:28:30.006Z,7.18
2022-10-26T03:30:56.816Z,9.20
2022-10-26T03:33:27.011Z,11.07
2022-10-26T03:35:59.251Z,10.25
2022-10-26T03:38:26.062Z,7.70
2022-10-26T03:40:53.103Z,8.40
2022-10-26T03:43:20.040Z,6.55
2022-10-26T03:45:46.963Z,10.65
2022-10-26T03:48:14.346Z,10.27
2022-10-26T03:50:43.447Z,5.55
2022-10-26T03:53:10.910Z,9.25
2022-10-26T03:55:38.161Z,5.68
2022-10-26T03:58:05.357Z,8.90
2022-10-26T04:00:32.104Z,6.47
2022-10-26T04:03:00.177Z,7.75
2022-10-26T04:05:29.276Z,10.30
2022-10-26T04:07:59.411Z,9.18
2022-10-26T04:10:27.648Z,5.28
2022-10-26T04:12:55.803Z,4.78
2022-10-26T04:15:23.437Z,15.77
2022-10-26T04:18:00.111Z,11.95
2022-10-26T04:20:29.652Z,13.18
2022-10-26T04:23:06.201Z,7.38
2022-10-26T04:25:34.109Z,9.50
2022-10-26T04:28:03.020Z,5.50
2022-10-26T04:30:30.562Z,11.18
2022-10-26T04:32:57.425Z,9.65
2022-10-26T04:35:24.550Z,8.40
2022-10-26T04:37:51.361Z,10.35
2022-10-26T04:40:18.651Z,9.60
2022-10-26T04:42:47.816Z,10.88
2022-10-26T04:45:16.602Z,11.18
2022-10-26T04:47:43.888Z,14.25
2022-10-26T04:50:12.655Z,11.68
2022-10-26T04:52:40.817Z,12.63
2022-10-26T04:55:08.198Z,8.02
2022-10-26T04:57:36.065Z,8.55
2022-10-26T05:00:05.157Z,13.02
2022-10-26T05:02:32.028Z,9.73
2022-10-26T05:04:59.022Z,10.82
2022-10-26T05:07:25.854Z,14.43
2022-10-26T05:09:52.652Z,9.38
2022-10-26T05:12:19.568Z,9.32
2022-10-26T05:14:46.341Z,9.43
2022-10-26T05:17:13.423Z,17.13
2022-10-26T05:19:40.301Z,17.63
2022-10-26T05:22:07.172Z,13.57
2022-10-26T05:24:33.976Z,9.82
2022-10-26T05:27:00.998Z,19.52
2022-10-26T05:29:27.765Z,12.75
2022-10-26T05:31:54.535Z,11.75
2022-10-26T05:34:21.399Z,12.65
2022-10-26T05:36:48.179Z,16.75
2022-10-26T05:39:14.961Z,12.52
2022-10-26T05:41:41.766Z,12.35
2022-10-26T05:44:08.506Z,14.75
2022-10-26T05:46:35.301Z,16.23
2022-10-26T05:49:02.088Z,14.48
2022-10-26T05:51:28.800Z,18.80
2022-10-26T05:53:55.552Z,12.82
2022-10-26T05:56:38.191Z,17.45
2022-10-26T05:59:15.764Z,15.15
2022-10-26T06:02:39.013Z,9.40
2022-10-26T06:05:11.063Z,10.50
2022-10-26T06:07:38.351Z,12.43
2022-10-26T06:10:05.807Z,14.38
2022-10-26T06:12:33.103Z,12.00
2022-10-26T06:15:00.220Z,10.25
2022-10-26T06:18:09.303Z,12.05
2022-10-26T06:20:57.154Z,15.48
2022-10-26T06:23:45.545Z,8.77
2022-10-26T06:26:56.690Z,11.38
2022-10-26T06:29:49.972Z,12.35
2022-10-26T06:32:17.734Z,11.18
2022-10-26T06:34:49.855Z,8.52
2022-10-26T06:37:18.073Z,10.32
2022-10-26T06:39:51.404Z,8.15
2022-10-26T06:42:21.280Z,7.65
2022-10-26T06:44:48.817Z,13.40
2022-10-26T06:47:46.125Z,7.82
2022-10-26T06:50:38.307Z,9.18
2022-10-26T06:53:20.414Z,13.23
2022-10-26T06:55:50.680Z,9.80
2022-10-26T06:58:25.724Z,8.23
2022-10-26T07:00:55.088Z,8.30
2022-10-26T07:03:22.431Z,6.30
2022-10-26T07:05:49.953Z,7.78
2022-10-26T07:08:16.902Z,5.32
2022-10-26T07:10:43.920Z,12.20
2022-10-26T07:13:11.449Z,11.57
2022-10-26T07:15:39.855Z,5.28
2022-10-26T07:18:08.325Z,6.70
2022-10-26T07:20:41.310Z,6.47
2022-10-26T07:23:12.470Z,8.13
2022-10-26T07:25:40.508Z,4.90
2022-10-26T07:28:10.460Z,6.00
2022-10-26T07:30:39.627Z,12.32
2022-10-26T07:33:14.159Z,5.03
2022-10-26T07:35:41.526Z,12.65
2022-10-26T07:38:09.115Z,5.68
2022-10-26T07:40:38.035Z,7.88
2022-10-26T07:43:05.317Z,8.02
2022-10-26T07:45:32.347Z,5.85
2022-10-26T07:47:59.210Z,8.88
2022-10-26T07:50:26.230Z,9.25
2022-10-26T07:52:53.397Z,8.25
2022-10-26T07:55:20.497Z,6.93
2022-10-26T07:57:49.769Z,4.93
2022-10-26T08:00:21.880Z,7.72
2022-10-26T08:02:48.799Z,7.15
2022-10-26T08:05:15.621Z,5.53
2022-10-26T08:07:44.431Z,10.68
2022-10-26T08:10:13.545Z,8.13
2022-10-26T08:12:41.793Z,8.20
2022-10-26T08:15:09.454Z,7.25
2022-10-26T08:17:36.243Z,5.07
2022-10-26T08:20:03.348Z,6.07
2022-10-26T08:22:30.892Z,6.47
2022-10-26T08:24:58.097Z,6.65
2022-10-26T08:27:24.932Z,9.73
2022-10-26T08:29:51.697Z,7.32
2022-10-26T08:32:18.480Z,5.72
2022-10-26T08:34:45.211Z,9.77
2022-10-26T08:37:11.953Z,11.93
2022-10-26T08:39:38.723Z,4.90
2022-10-26T08:42:30.412Z,6.13
2022-10-26T08:45:13.364Z,9.50
2022-10-26T08:47:46.438Z,5.10
2022-10-26T08:50:45.665Z,9.38
2022-10-26T08:53:18.485Z,10.32
2022-10-26T08:55:53.361Z,8.48
2022-10-26T08:58:28.483Z,4.82
2022-10-26T09:00:55.601Z,9.88
2022-10-26T09:03:22.542Z,7.60
2022-10-26T09:06:14.166Z,7.68
2022-10-26T09:09:01.835Z,9.10
2022-10-26T09:11:49.343Z,12.30
2022-10-26T09:14:31.254Z,4.57
2022-10-26T09:17:07.866Z,7.68
2022-10-26T09:19:49.977Z,4.10
2022-10-26T09:22:35.021Z,5.88
2022-10-26T09:25:19.320Z,5.00
2022-10-26T09:28:01.250Z,13.50
2022-10-26T09:30:30.274Z,5.78
2022-10-26T09:33:08.815Z,12.98
2022-10-26T09:35:50.053Z,11.77
2022-10-26T09:38:28.603Z,7.65
2022-10-26T09:41:03.346Z,6.60
2022-10-26T09:43:58.219Z,12.70
2022-10-26T09:46:52.627Z,8.23
2022-10-26T09:49:30.283Z,4.40
2022-10-26T09:51:57.372Z,9.38
2022-10-26T09:54:24.341Z,10.00
2022-10-26T09:57:02.139Z,8.38
2022-10-26T09:59:34.958Z,6.63
2022-10-26T10:02:15.109Z,5.20
2022-10-26T10:04:47.982Z,6.32
2022-10-26T10:07:18.436Z,3.35
2022-10-26T10:09:46.362Z,9.30
2022-10-26T10:12:21.313Z,5.38
2022-10-26T10:14:59.645Z,7.47
2022-10-26T10:17:27.366Z,6.07
2022-10-26T10:19:54.231Z,8.48
2022-10-26T10:22:25.907Z,6.05
2022-10-26T10:25:04.301Z,11.48
2022-10-26T10:27:33.416Z,5.03
2022-10-26T10:30:32.352Z,12.80
2022-10-26T10:33:10.511Z,3.47
2022-10-26T10:35:49.382Z,6.20
2022-10-26T10:38:20.783Z,7.15
2022-10-26T10:40:56.439Z,8.80
2022-10-26T10:43:24.155Z,6.07
2022-10-26T10:45:59.466Z,5.82
2022-10-26T10:48:29.478Z,11.38
2022-10-26T10:51:02.831Z,6.70
2022-10-26T10:53:55.423Z,5.72
2022-10-26T10:57:05.271Z,5.63
2022-10-26T11:00:04.509Z,3.80
2022-10-26T11:03:02.260Z,4.57
2022-10-26T11:05:50.136Z,6.38
2022-10-26T11:08:44.637Z,10.55
2022-10-26T11:11:33.450Z,5.28
2022-10-26T11:14:32.808Z,8.85
2022-10-26T11:17:13.559Z,7.40
2022-10-26T11:20:04.649Z,7.18
2022-10-26T11:22:56.242Z,4.53
2022-10-26T11:25:30.292Z,4.93
2022-10-26T11:28:16.423Z,4.95
2022-10-26T11:30:52.165Z,6.10
2022-10-26T11:33:37.438Z,6.47
2022-10-26T11:36:17.233Z,7.50
2022-10-26T11:38:59.296Z,5.75
2022-10-26T11:41:47.983Z,6.53
2022-10-26T11:44:40.744Z,10.02
2022-10-26T11:47:48.922Z,9.75
2022-10-26T11:50:34.183Z,7.82
2022-10-26T11:53:23.997Z,4.63
2022-10-26T11:55:54.492Z,7.70
2022-10-26T11:58:28.404Z,13.45
2022-10-26T12:01:10.908Z,8.38
2022-10-26T12:03:47.257Z,4.15
2022-10-26T12:06:24.868Z,4.85
2022-10-26T12:09:07.560Z,4.55
2022-10-26T12:11:50.241Z,3.92
2022-10-26T12:14:30.880Z,2.75
2022-10-26T12:17:00.483Z,3.42
2022-10-26T12:19:49.100Z,3.88
2022-10-26T12:22:20.356Z,4.35
2022-10-26T12:25:24.945Z,7.30
2022-10-26T12:27:58.217Z,4.75
2022-10-26T12:30:37.015Z,5.10
2022-10-26T12:33:29.132Z,5.68
2022-10-26T12:35:56.198Z,8.68
2022-10-26T12:38:29.020Z,4.80
2022-10-26T12:41:04.333Z,7.78
2022-10-26T12:43:31.145Z,6.40
2022-10-26T12:46:13.152Z,3.88
2022-10-26T12:48:40.027Z,7.43
2022-10-26T12:51:22.276Z,4.15
2022-10-26T12:54:01.108Z,5.97
2022-10-26T12:56:55.135Z,9.95
2022-10-26T12:59:57.920Z,3.58
2022-10-26T13:03:01.883Z,7.18
2022-10-26T13:06:36.021Z,4.85
2022-10-26T13:09:17.640Z,5.45
2022-10-26T13:11:52.350Z,5.13
2022-10-26T13:14:54.945Z,4.55
2022-10-26T13:17:30.085Z,10.93
2022-10-26T13:20:05.609Z,6.25
2022-10-26T13:22:33.311Z,6.35
2022-10-26T13:25:06.488Z,7.10
2022-10-26T13:27:33.156Z,4.07
2022-10-26T13:30:41.177Z,8.77
2022-10-26T13:33:20.776Z,10.80
2022-10-26T13:35:47.961Z,9.65
2022-10-26T13:38:22.669Z,4.90
2022-10-26T13:40:52.048Z,3.35
2022-10-26T13:43:25.196Z,5.38
2022-10-26T13:46:01.231Z,7.35
2022-10-26T13:48:41.836Z,4.70
2022-10-26T13:51:24.643Z,7.13
2022-10-26T13:54:11.996Z,8.38
2022-10-26T13:56:57.073Z,5.97
2022-10-26T13:59:26.360Z,5.35
2022-10-26T14:02:24.169Z,4.00
2022-10-26T14:05:04.562Z,6.35
2022-10-26T14:07:56.936Z,6.13
2022-10-26T14:10:29.512Z,5.28
2022-10-26T14:12:57.638Z,5.72
2022-10-26T14:15:30.834Z,8.45
2022-10-26T14:18:01.871Z,3.42
2022-10-26T14:20:31.642Z,5.10
2022-10-26T14:22:58.947Z,5.82
2022-10-26T14:25:42.366Z,4.85
2022-10-26T14:28:25.188Z,6.88
2022-10-26T14:30:52.381Z,4.70
2022-10-26T14:33:27.370Z,4.82
2022-10-26T14:35:55.216Z,5.07
2022-10-26T14:38:30.084Z,4.97
2022-10-26T14:40:58.394Z,5.00
2022-10-26T14:43:27.131Z,6.28
2022-10-26T14:45:54.809Z,7.68
2022-10-26T14:48:30.491Z,11.43
2022-10-26T14:51:17.586Z,4.53
2022-10-26T14:53:58.093Z,4.35
2022-10-26T14:56:34.937Z,7.88
2022-10-26T14:59:27.397Z,10.75
2022-10-26T15:02:19.470Z,14.80
2022-10-26T15:05:02.573Z,6.35
2022-10-26T15:07:40.983Z,10.55
2022-10-26T15:10:39.651Z,13.55
2022-10-26T15:13:33.307Z,15.38
2022-10-26T15:16:28.313Z,9.88
2022-10-26T15:18:59.825Z,6.43
2022-10-26T15:21:47.341Z,11.40
2022-10-26T15:24:26.317Z,10.02
2022-10-26T15:26:53.254Z,8.18
2022-10-26T15:29:47.325Z,13.77
2022-10-26T15:32:31.198Z,6.70
2022-10-26T15:35:19.647Z,7.55
2022-10-26T15:37:48.361Z,4.45
2022-10-26T15:40:16.207Z,11.57
2022-10-26T15:42:45.647Z,17.90
2022-10-26T15:45:25.700Z,10.25
2022-10-26T15:47:56.641Z,15.73
2022-10-26T15:50:28.097Z,8.95
2022-10-26T15:53:17.939Z,23.13
2022-10-26T15:55:44.887Z,13.35
2022-10-26T15:58:11.896Z,25.33
2022-10-26T16:00:38.623Z,10.93
2022-10-26T16:03:05.371Z,9.52
2022-10-26T16:08:04.273Z,13.38
2022-10-26T16:10:31.050Z,24.15
2022-10-26T16:12:59.225Z,15.15
2022-10-26T16:15:26.032Z,13.75
2022-10-26T16:17:53.170Z,5.47
2022-10-26T16:20:24.379Z,17.95
2022-10-26T16:22:53.179Z,19.05
2022-10-26T16:25:25.244Z,19.10
2022-10-26T16:27:55.117Z,10.13
2022-10-26T16:30:24.851Z,24.25
2022-10-26T16:32:54.958Z,12.05
2022-10-26T16:35:21.764Z,12.10
2022-10-26T16:37:48.591Z,16.77
2022-10-26T16:40:15.382Z,23.00
2022-10-26T16:42:43.954Z,15.68
2022-10-26T16:45:15.615Z,8.60
2022-10-26T16:47:42.460Z,17.23
2022-10-26T16:50:11.935Z,20.58
2022-10-26T16:52:39.575Z,15.82
2022-10-26T16:55:08.215Z,14.75
2022-10-26T16:57:38.148Z,14.52
2022-10-26T17:00:07.504Z,17.77
2022-10-26T17:02:34.322Z,7.43
2022-10-26T17:05:04.333Z,19.08
2022-10-26T17:07:33.937Z,10.32
2022-10-26T17:10:00.761Z,10.02
2022-10-26T17:15:00.500Z,12.98
2022-10-26T17:17:27.471Z,14.68
2022-10-26T17:19:54.343Z,18.27
2022-10-26T17:22:21.209Z,27.83
2022-10-26T17:24:47.961Z,21.52
2022-10-26T17:27:16.178Z,22.73
2022-10-26T17:29:43.289Z,19.00
2022-10-26T17:32:10.118Z,24.27
2022-10-26T17:34:36.862Z,20.67
2022-10-26T17:37:03.662Z,30.63
2022-10-26T17:39:30.533Z,21.05
2022-10-26T17:41:57.286Z,18.15
2022-10-26T17:44:24.352Z,19.73
2022-10-26T17:46:51.165Z,18.42
2022-10-26T17:49:17.910Z,23.60
2022-10-26T17:51:44.676Z,15.45
2022-10-26T17:54:11.478Z,18.25
2022-10-26T17:56:39.258Z,27.40
2022-10-26T17:59:11.500Z,20.08
2022-10-26T18:01:38.770Z,39.30
2022-10-26T18:04:05.687Z,15.90
2022-10-26T18:06:32.472Z,25.30
2022-10-26T18:08:59.359Z,21.95
2022-10-26T18:11:27.550Z,17.58
2022-10-26T18:13:56.231Z,15.25
2022-10-26T18:16:25.305Z,18.83
2022-10-26T18:19:04.651Z,14.95
2022-10-26T18:21:39.106Z,24.17
2022-10-26T18:24:09.731Z,17.77
2022-10-26T18:26:36.784Z,19.60
2022-10-26T18:29:05.102Z,13.93
2022-10-26T18:31:34.872Z,23.85
2022-10-26T18:34:04.603Z,18.02
2022-10-26T18:36:31.784Z,18.27
2022-10-26T18:38:58.943Z,19.92
2022-10-26T18:41:26.443Z,21.80
2022-10-26T18:43:58.674Z,25.77
2022-10-26T18:46:31.346Z,28.55
2022-10-26T18:49:00.885Z,21.00
2022-10-26T18:51:34.268Z,24.85
2022-10-26T18:54:02.153Z,141.32
2022-10-26T18:56:29.210Z,50.13
2022-10-26T18:58:58.999Z,25.38
2022-10-26T19:01:29.700Z,21.75
2022-10-26T19:04:02.649Z,25.92
2022-10-26T19:06:33.977Z,30.55
2022-10-26T19:09:00.975Z,26.58
2022-10-26T19:11:30.124Z,33.72
2022-10-26T19:13:57.422Z,18.20
2022-10-26T19:19:16.463Z,17.65
2022-10-26T19:21:44.679Z,17.50
2022-10-26T19:24:16.039Z,24.52
2022-10-26T19:26:44.006Z,19.92
2022-10-26T19:29:15.140Z,21.60
2022-10-26T19:31:46.853Z,97.50
2022-10-26T19:34:15.869Z,18.38
2022-10-26T19:36:45.110Z,15.48
2022-10-26T19:39:16.609Z,70.72
2022-10-26T19:41:44.700Z,205.10
2022-10-26T19:44:13.681Z,289.23
2022-10-26T19:46:40.539Z,45.80
2022-10-26T19:49:07.921Z,142.63
2022-10-26T19:51:35.341Z,62.03
2022-10-26T19:54:04.024Z,68.95
2022-10-26T19:56:32.571Z,26.77
2022-10-26T19:58:59.706Z,44.65
2022-10-26T20:01:27.376Z,128.73
2022-10-26T20:03:54.435Z,395.27
2022-10-26T20:06:21.251Z,241.73
2022-10-26T20:08:49.393Z,122.10
2022-10-26T20:11:18.371Z,71.63
2022-10-26T20:13:47.291Z,74.13
2022-10-26T20:16:17.093Z,131.55
2022-10-26T20:18:47.789Z,33.20
2022-10-26T20:21:17.568Z,53.17
2022-10-26T20:23:45.414Z,76.50
2022-10-26T20:26:19.437Z,223.73
2022-10-26T20:28:48.803Z,34.65
2022-10-26T20:31:15.670Z,87.15
2022-10-26T20:33:42.885Z,158.15
2022-10-26T20:36:09.879Z,65.80
2022-10-26T20:38:38.392Z,126.65
2022-10-26T20:41:07.983Z,114.35
2022-10-26T20:43:40.306Z,57.25
2022-10-26T20:46:28.277Z,44.88
2022-10-26T20:48:55.517Z,65.78
2022-10-26T20:52:08.687Z,193.80
2022-10-26T20:54:54.039Z,172.68
2022-10-26T20:57:29.546Z,160.55
2022-10-26T21:00:08.901Z,31.02
2022-10-26T21:02:35.826Z,26.10
2022-10-26T21:05:03.414Z,25.63
2022-10-26T21:07:30.197Z,46.78
2022-10-26T21:09:56.942Z,35.13
2022-10-26T21:12:23.781Z,44.88
2022-10-26T21:14:50.499Z,72.00
2022-10-26T21:17:17.223Z,251.57
2022-10-26T21:19:44.008Z,94.38
2022-10-26T21:22:10.812Z,22.15
2022-10-26T21:24:37.554Z,44.90
2022-10-26T21:27:04.335Z,26.13
2022-10-26T21:29:31.127Z,34.63
2022-10-26T21:31:57.958Z,39.88
2022-10-26T21:34:24.688Z,66.20
2022-10-26T21:36:51.491Z,169.70
2022-10-26T21:39:18.219Z,28.48
2022-10-26T21:41:45.011Z,30.90
2022-10-26T21:44:24.582Z,17.25
2022-10-26T21:46:58.519Z,60.05
2022-10-26T21:49:25.259Z,33.78
2022-10-26T21:51:52.015Z,24.90
2022-10-26T21:54:18.730Z,46.60
2022-10-26T21:56:45.500Z,93.03
2022-10-26T21:59:12.255Z,118.70
2022-10-26T22:01:39.172Z,15.88
2022-10-26T22:04:06.114Z,13.63
2022-10-26T22:06:32.860Z,86.90
2022-10-26T22:08:59.609Z,19.27
2022-10-26T22:11:26.359Z,37.50
2022-10-26T22:13:53.956Z,128.45
2022-10-26T22:16:24.585Z,53.00
2022-10-26T22:18:54.869Z,64.25
2022-10-26T22:21:24.407Z,39.22
2022-10-26T22:23:51.338Z,24.52
2022-10-26T22:26:22.489Z,17.65
2022-10-26T22:28:56.081Z,24.95
2022-10-26T22:34:07.559Z,78.95
2022-10-26T22:36:35.327Z,67.00
2022-10-26T22:39:02.735Z,113.35
2022-10-26T22:41:29.508Z,134.65
2022-10-26T22:43:56.396Z,192.13
2022-10-26T22:46:26.240Z,79.82
2022-10-26T22:48:59.398Z,124.90
2022-10-26T22:51:31.054Z,51.28
2022-10-26T22:54:01.585Z,14.48
2022-10-26T22:56:30.871Z,68.85
2022-10-26T22:58:58.298Z,78.50
2022-10-26T23:01:32.072Z,79.18
2022-10-26T23:04:00.245Z,46.00
2022-10-26T23:06:29.351Z,107.00
2022-10-26T23:08:56.681Z,128.43
2022-10-26T23:11:26.997Z,171.73
2022-10-26T23:13:56.533Z,32.10
2022-10-26T23:16:23.802Z,13.00
2022-10-26T23:18:53.148Z,50.88
2022-10-26T23:21:22.380Z,25.92
2022-10-26T23:23:49.396Z,37.92
2022-10-26T23:26:20.910Z,62.88
2022-10-26T23:28:48.898Z,16.70
2022-10-26T23:31:22.751Z,30.98
2022-10-26T23:33:51.353Z,33.75
2022-10-26T23:36:18.758Z,12.82
2022-10-26T23:38:46.050Z,18.67
2022-10-26T23:41:13.347Z,11.05
2022-10-26T23:43:40.935Z,21.58
2022-10-26T23:46:08.090Z,23.27
2022-10-26T23:48:34.902Z,24.52
2022-10-26T23:51:01.692Z,86.65
2022-10-26T23:53:28.613Z,93.30
2022-10-26T23:55:55.464Z,39.13
2022-10-26T23:58:22.334Z,17.58
